Fernando Namora — CSKF — position and weather

sailwx.info

Track history (hours):
 
Tides and Currents Weather Stations Pressure Air Temp Water Temp Dewpoint Dewpoint Depression Visibility Wind Speed Wind Dir Waves Ship Positions

Fernando Namora

Last reported at 2017-Oct-06 20:41 UTC. Time now 2017-Nov-24 07:47 UTC.
Position N 38°39' W 009°05'.
Warning: this ship's position is 48 days out of date.

Length 49 m; draft 1.5 m.

Type: Ship. MMSI: 263701380.

Date/timePositionNaut miles runAvg speedWind from/ knotsBaromVisibWave heightAir tempDewpointWater temp
2017-Oct-06 20:41N 38°39' W 009°05'0 0.6
2017-Oct-06 20:30N 38°39' W 009°05'4 8.3
2017-Oct-06 20:00N 38°42' W 009°08'4 8.3
2017-Oct-06 19:30N 38°39' W 009°05'2 4.1
2017-Oct-06 19:00N 38°40' W 009°07'1 1.7
2017-Oct-06 18:31N 38°41' W 009°08'1 2.0
2017-Oct-06 18:01N 38°40' W 009°07'1 1.4
2017-Oct-06 17:30N 38°40' W 009°06'3 6.2
2017-Oct-06 17:01N 38°42' W 009°08'4 8.3
2017-Oct-06 16:31N 38°39' W 009°05'4 8.3
2017-Oct-06 16:00N 38°42' W 009°08'4 7.5
2017-Oct-06 15:30N 38°39' W 009°05'3 5.6
2017-Oct-06 15:00N 38°41' W 009°08'3 6.3
2017-Oct-06 14:30N 38°39' W 009°05'0 0.0
2017-Oct-06 11:23N 38°39' W 009°05'0 0.1
2017-Oct-06 11:00N 38°39' W 009°05'0 0.1
2017-Oct-06 10:30N 38°39' W 009°05'0 0.0
2017-Oct-06 10:00N 38°39' W 009°05'0 0.0
2017-Oct-06 09:30N 38°39' W 009°05'3 6.8
2017-Oct-06 09:00N 38°42' W 009°08'3 5.9
2017-Oct-06 08:30N 38°39' W 009°06'3 5.6
2017-Oct-06 08:01N 38°41' W 009°08'3 6.7
2017-Oct-06 07:30N 38°39' W 009°05'4 8.2
2017-Oct-06 07:00N 38°42' W 009°08'4 8.5
2017-Oct-06 06:30N 38°39' W 009°05'3 6.9
2017-Oct-06 06:00N 38°41' W 009°08'3 6.7
2017-Oct-06 05:30N 38°39' W 009°05'0 0.0
2017-Oct-04 20:36N 38°39' W 009°05'0 0.0
2017-Oct-04 20:30N 38°39' W 009°05'4 8.2
2017-Oct-04 20:00N 38°42' W 009°08'4 8.3
2017-Oct-04 19:30N 38°39' W 009°05'2 3.4
2017-Oct-04 19:01N 38°40' W 009°07'1 2.7
2017-Oct-04 18:30N 38°41' W 009°08'1 2.1
2017-Oct-04 18:01N 38°40' W 009°07'1 1.7
2017-Oct-04 17:30N 38°40' W 009°06'3 6.0
2017-Oct-04 17:00N 38°42' W 009°08'4 8.3
2017-Oct-04 16:30N 38°39' W 009°05'4 8.3
2017-Oct-04 16:00N 38°42' W 009°08'4 7.1
2017-Oct-04 15:30N 38°39' W 009°06'2 4.3
2017-Oct-04 15:00N 38°41' W 009°08'3 5.6
2017-Oct-04 14:30N 38°39' W 009°05'0 0.0
2017-Oct-04 14:00N 38°39' W 009°05'0 0.0
2017-Oct-04 13:31N 38°39' W 009°05'0 0.0
2017-Oct-04 13:01N 38°39' W 009°05'0 0.0
2017-Oct-04 12:31N 38°39' W 009°05'4 7.3
2017-Oct-04 12:00N 38°42' W 009°08'3 6.1
2017-Oct-04 11:30N 38°39' W 009°06'3 6.1
2017-Oct-04 11:01N 38°42' W 009°08'3 6.6
2017-Oct-04 10:31N 38°39' W 009°05'1 1.0
2017-Oct-04 10:00N 38°39' W 009°05'0 0.0
2017-Oct-04 09:30N 38°39' W 009°05'4 8.3
2017-Oct-04 09:00N 38°42' W 009°08'4 8.4
2017-Oct-04 08:31N 38°39' W 009°05'4 8.4
2017-Oct-04 08:00N 38°42' W 009°08'4 7.2
2017-Oct-04 07:31N 38°39' W 009°06'2 3.6
2017-Oct-04 07:01N 38°40' W 009°08'0 1.0
2017-Oct-04 06:31N 38°40' W 009°07'1 2.0
2017-Oct-04 06:00N 38°40' W 009°06'1 2.0
2017-Oct-04 05:31N 38°39' W 009°05'0 0.0
2017-Oct-03 19:56N 38°39' W 009°05'4 9.7
2017-Oct-03 19:31N 38°42' W 009°08'4 8.3
2017-Oct-03 19:01N 38°39' W 009°05'4 8.3
2017-Oct-03 18:30N 38°42' W 009°08'4 8.3
2017-Oct-03 18:01N 38°39' W 009°05'4 8.1
2017-Oct-03 17:30N 38°42' W 009°08'2 4.7
2017-Oct-03 17:00N 38°40' W 009°07'1 1.7
2017-Oct-03 16:31N 38°40' W 009°06'3 6.1
2017-Oct-03 16:00N 38°42' W 009°08'4 8.3
2017-Oct-03 15:31N 38°39' W 009°05'3 6.8
2017-Oct-03 15:01N 38°42' W 009°08'3 3.3
2017-Oct-03 14:00N 38°39' W 009°05'0 0.0
2017-Oct-03 13:30N 38°39' W 009°05'0 0.0
2017-Oct-03 09:56N 38°39' W 009°05'0 0.1
2017-Oct-03 09:30N 38°39' W 009°05'4 7.1
2017-Oct-03 09:00N 38°42' W 009°08'3 5.9
2017-Oct-03 08:31N 38°39' W 009°06'3 5.4
2017-Oct-03 08:01N 38°41' W 009°08'3 5.5
2017-Oct-03 07:31N 38°39' W 009°06'4 7.2
2017-Oct-03 07:00N 38°42' W 009°08'4 8.5
2017-Oct-03 06:31N 38°39' W 009°05'3 5.7
2017-Oct-03 06:00N 38°40' W 009°08'3 5.5
2017-Oct-03 05:30N 38°39' W 009°05'0 0.0
2017-Oct-02 20:15N 38°39' W 009°05'2 8.4
2017-Oct-02 20:01N 38°40' W 009°07'0 0.9
2017-Oct-02 19:31N 38°40' W 009°07'2 5.0
2017-Oct-02 19:00N 38°39' W 009°05'2 3.9
2017-Oct-02 18:31N 38°40' W 009°07'1 1.5
2017-Oct-02 18:00N 38°40' W 009°06'3 6.4
2017-Oct-02 17:30N 38°42' W 009°08'4 8.3
2017-Oct-02 17:01N 38°39' W 009°05'4 8.0
2017-Oct-02 16:31N 38°42' W 009°08'2 4.4
2017-Oct-02 16:01N 38°40' W 009°07'1 1.2
2017-Oct-02 15:31N 38°41' W 009°08'3 5.4
2017-Oct-02 15:00N 38°39' W 009°05'0 0.0
2017-Oct-02 14:30N 38°39' W 009°05'3 6.4
2017-Oct-02 14:00N 38°41' W 009°08'3 5.2
2017-Oct-02 13:30N 38°39' W 009°06'3 6.0
2017-Oct-02 13:00N 38°42' W 009°08'3 6.1
2017-Oct-02 12:30N 38°39' W 009°05'0 1.0
2017-Oct-02 12:00N 38°39' W 009°05'0 0.0
2017-Oct-02 11:30N 38°39' W 009°05'0 0.0
2017-Oct-02 11:00N 38°39' W 009°05'0 0.0
2017-Oct-02 10:30N 38°39' W 009°05'0 0.0
2017-Oct-02 10:00N 38°39' W 009°05'0 0.2
2017-Oct-02 09:30N 38°39' W 009°05'3 6.6
2017-Oct-02 09:01N 38°41' W 009°08'2 4.9
2017-Oct-02 08:31N 38°39' W 009°06'2 4.5
2017-Oct-02 08:00N 38°41' W 009°08'3 5.7
2017-Oct-02 07:30N 38°39' W 009°05'4 7.8
2017-Oct-02 07:00N 38°42' W 009°08'4 8.4
2017-Oct-02 06:30N 38°39' W 009°05'3 6.4
2017-Oct-02 06:00N 38°41' W 009°08'3 6.3
2017-Oct-02 05:30N 38°39' W 009°05'  
2017-Sep-29 20:34N 38°39' W 009°05'0 0.0
2017-Sep-29 20:30N 38°39' W 009°05'4 8.3
2017-Sep-29 20:00N 38°42' W 009°08'4 8.3
2017-Sep-29 19:31N 38°39' W 009°05'3 6.2
2017-Sep-29 19:01N 38°41' W 009°08'1 1.5
2017-Sep-29 18:30N 38°40' W 009°07'0 0.3
2017-Sep-29 18:01N 38°40' W 009°08'2 4.1
2017-Sep-29 17:31N 38°39' W 009°05'4 7.6
2017-Sep-29 17:00N 38°42' W 009°08'4 8.2
2017-Sep-29 16:31N 38°39' W 009°05'4 8.1
2017-Sep-29 16:00N 38°42' W 009°08'3 6.7
2017-Sep-29 15:30N 38°39' W 009°06'2 4.0
2017-Sep-29 15:00N 38°41' W 009°08'3 5.8
2017-Sep-29 14:31N 38°39' W 009°05'0 0.2
2017-Sep-29 14:00N 38°39' W 009°05'0 0.0
2017-Sep-29 13:30N 38°39' W 009°05'0 0.0
2017-Sep-29 13:00N 38°39' W 009°05'0 0.0
2017-Sep-29 12:30N 38°39' W 009°05'0 0.0
2017-Sep-29 12:00N 38°39' W 009°05'0 0.0
2017-Sep-29 11:30N 38°39' W 009°05'0 0.0
2017-Sep-29 11:00N 38°39' W 009°05'0 0.1
2017-Sep-29 10:30N 38°39' W 009°05'0 0.0
2017-Sep-29 10:00N 38°39' W 009°05'0 0.0
2017-Sep-29 09:30N 38°39' W 009°05'3 6.4
2017-Sep-29 09:00N 38°41' W 009°08'2 4.9
2017-Sep-29 08:31N 38°39' W 009°06'2 4.8
2017-Sep-29 08:01N 38°41' W 009°08'3 5.9
2017-Sep-29 07:30N 38°39' W 009°05'4 7.8
2017-Sep-29 07:00N 38°42' W 009°08'4 8.3
2017-Sep-29 06:30N 38°39' W 009°05'4 7.1
2017-Sep-29 06:00N 38°42' W 009°08'3 7.0
2017-Sep-29 05:31N 38°39' W 009°05'0 0.0
2017-Sep-28 19:53N 38°39' W 009°05'411.1
2017-Sep-28 19:30N 38°42' W 009°08'4 8.4
2017-Sep-28 19:00N 38°39' W 009°05'4 8.3
2017-Sep-28 18:30N 38°42' W 009°08'4 8.3
2017-Sep-28 18:01N 38°39' W 009°05'4 7.7
2017-Sep-28 17:31N 38°42' W 009°08'2 4.2
2017-Sep-28 17:01N 38°40' W 009°07'1 2.4
2017-Sep-28 16:30N 38°40' W 009°06'3 6.4
2017-Sep-28 16:00N 38°42' W 009°08'4 8.3
2017-Sep-28 15:30N 38°39' W 009°05'4 7.3
2017-Sep-28 15:00N 38°42' W 009°08'3 6.2
2017-Sep-28 14:30N 38°39' W 009°06'1 1.2
2017-Sep-28 14:00N 38°39' W 009°05'0 0.0
2017-Sep-28 13:30N 38°39' W 009°05'0 0.0
2017-Sep-28 13:00N 38°39' W 009°05'0 0.0
2017-Sep-28 12:30N 38°39' W 009°05'0 0.0
2017-Sep-28 12:00N 38°39' W 009°05'0 0.0
2017-Sep-28 11:30N 38°39' W 009°05'0 0.0
2017-Sep-28 11:00N 38°39' W 009°05'0 0.1
2017-Sep-28 10:30N 38°39' W 009°05'3 6.5
2017-Sep-28 10:00N 38°42' W 009°08'3 5.1
2017-Sep-28 09:31N 38°39' W 009°06'1 1.6
2017-Sep-28 09:00N 38°39' W 009°05'4 8.3
2017-Sep-28 08:30N 38°42' W 009°08'4 8.3
2017-Sep-28 08:01N 38°39' W 009°05'4 7.7
2017-Sep-28 07:30N 38°42' W 009°08'2 3.7
2017-Sep-28 07:01N 38°40' W 009°07'2 4.5
2017-Sep-28 06:30N 38°39' W 009°05'4 8.1
2017-Sep-28 06:00N 38°42' W 009°08'4 8.3
2017-Sep-28 05:30N 38°39' W 009°05'4 7.6
2017-Sep-28 05:01N 38°42' W 009°08'4 7.6
2017-Sep-28 04:30N 38°39' W 009°05'0 0.0
2017-Sep-28 04:01N 38°39' W 009°05'0 0.0
2017-Sep-28 03:31N 38°39' W 009°05'0 0.0
2017-Sep-28 03:00N 38°39' W 009°05'0 0.0
2017-Sep-28 02:31N 38°39' W 009°05'0 0.0
2017-Sep-28 02:01N 38°39' W 009°05'0 0.0
2017-Sep-28 01:31N 38°39' W 009°05'0 0.0
2017-Sep-28 01:01N 38°39' W 009°05'0 0.0
2017-Sep-28 00:30N 38°39' W 009°05'0 0.0
2017-Sep-28 00:01N 38°39' W 009°05'0 0.0
2017-Sep-27 23:31N 38°39' W 009°05'0 0.0
2017-Sep-27 23:01N 38°39' W 009°05'4 8.3
2017-Sep-27 22:30N 38°42' W 009°08'4 8.4
2017-Sep-27 22:01N 38°39' W 009°05'3 6.9
2017-Sep-27 21:31N 38°42' W 009°08'3 6.9
2017-Sep-27 21:00N 38°39' W 009°05'4 7.1
2017-Sep-27 20:30N 38°42' W 009°08'4 7.0
2017-Sep-27 20:00N 38°39' W 009°05'0 0.0
2017-Sep-27 19:30N 38°39' W 009°05'4 8.3
2017-Sep-27 19:01N 38°42' W 009°08'4 8.4
2017-Sep-27 18:31N 38°39' W 009°05'4 8.4
2017-Sep-27 18:00N 38°42' W 009°08'4 8.3
2017-Sep-27 17:30N 38°39' W 009°05'4 8.2
2017-Sep-27 17:00N 38°42' W 009°08'2 4.6
2017-Sep-27 16:30N 38°40' W 009°07'0 0.3
2017-Sep-27 16:01N 38°40' W 009°07'2 4.5
2017-Sep-27 15:30N 38°39' W 009°05'0 0.0
2017-Sep-27 15:00N 38°39' W 009°05'0 0.0
2017-Sep-27 14:30N 38°39' W 009°05'0 0.0
2017-Sep-27 14:00N 38°39' W 009°05'0 0.0
2017-Sep-27 13:30N 38°39' W 009°05'0 0.0
2017-Sep-27 13:00N 38°39' W 009°05'0 0.0
2017-Sep-27 12:30N 38°39' W 009°05'0 0.0
2017-Sep-27 12:00N 38°39' W 009°05'0 0.0
2017-Sep-27 11:30N 38°39' W 009°05'0 0.0
2017-Sep-27 11:00N 38°39' W 009°05'0 0.0
2017-Sep-27 10:31N 38°39' W 009°05'0 0.0
2017-Sep-27 10:00N 38°39' W 009°05'0 0.0
2017-Sep-27 09:30N 38°39' W 009°05'0 0.0
2017-Sep-27 09:00N 38°39' W 009°05'0 0.1
2017-Sep-27 08:30N 38°39' W 009°05'3 6.4
2017-Sep-27 08:00N 38°41' W 009°08'3 6.6
2017-Sep-27 07:31N 38°39' W 009°05'4 8.4
2017-Sep-27 07:01N 38°42' W 009°08'4 8.3
2017-Sep-27 06:30N 38°39' W 009°05'3 6.5
2017-Sep-27 06:01N 38°42' W 009°08'3 6.5
2017-Sep-27 05:30N 38°39' W 009°05'  
Track history (hours):
 
Tides and Currents Weather Stations Pressure Air Temp Water Temp Dewpoint Dewpoint Depression Visibility Wind Speed Wind Dir Waves Ship Positions

Fernando Namora

Last reported at 2017-Oct-06 20:41 UTC. Time now 2017-Nov-24 07:47 UTC.
Position N 38°39' W 009°05'.
Warning: this ship's position is 48 days out of date.

Length 49 m; draft 1.5 m.

Type: Ship. MMSI: 263701380.

Date/timePositionNaut miles runAvg speedWind from/ knotsBaromVisibWave heightAir tempDewpointWater temp
2017-Oct-06 20:41N 38°39' W 009°05'0 0.6
2017-Oct-06 20:30N 38°39' W 009°05'4 8.3
2017-Oct-06 20:00N 38°42' W 009°08'4 8.3
2017-Oct-06 19:30N 38°39' W 009°05'2 4.1
2017-Oct-06 19:00N 38°40' W 009°07'1 1.7
2017-Oct-06 18:31N 38°41' W 009°08'1 2.0
2017-Oct-06 18:01N 38°40' W 009°07'1 1.4
2017-Oct-06 17:30N 38°40' W 009°06'3 6.2
2017-Oct-06 17:01N 38°42' W 009°08'4 8.3
2017-Oct-06 16:31N 38°39' W 009°05'4 8.3
2017-Oct-06 16:00N 38°42' W 009°08'4 7.5
2017-Oct-06 15:30N 38°39' W 009°05'3 5.6
2017-Oct-06 15:00N 38°41' W 009°08'3 6.3
2017-Oct-06 14:30N 38°39' W 009°05'0 0.0
2017-Oct-06 11:23N 38°39' W 009°05'0 0.1
2017-Oct-06 11:00N 38°39' W 009°05'0 0.1
2017-Oct-06 10:30N 38°39' W 009°05'0 0.0
2017-Oct-06 10:00N 38°39' W 009°05'0 0.0
2017-Oct-06 09:30N 38°39' W 009°05'3 6.8
2017-Oct-06 09:00N 38°42' W 009°08'3 5.9
2017-Oct-06 08:30N 38°39' W 009°06'3 5.6
2017-Oct-06 08:01N 38°41' W 009°08'3 6.7
2017-Oct-06 07:30N 38°39' W 009°05'4 8.2
2017-Oct-06 07:00N 38°42' W 009°08'4 8.5
2017-Oct-06 06:30N 38°39' W 009°05'3 6.9
2017-Oct-06 06:00N 38°41' W 009°08'3 6.7
2017-Oct-06 05:30N 38°39' W 009°05'0 0.0
2017-Oct-04 20:36N 38°39' W 009°05'0 0.0
2017-Oct-04 20:30N 38°39' W 009°05'4 8.2
2017-Oct-04 20:00N 38°42' W 009°08'4 8.3
2017-Oct-04 19:30N 38°39' W 009°05'2 3.4
2017-Oct-04 19:01N 38°40' W 009°07'1 2.7
2017-Oct-04 18:30N 38°41' W 009°08'1 2.1
2017-Oct-04 18:01N 38°40' W 009°07'1 1.7
2017-Oct-04 17:30N 38°40' W 009°06'3 6.0
2017-Oct-04 17:00N 38°42' W 009°08'4 8.3
2017-Oct-04 16:30N 38°39' W 009°05'4 8.3
2017-Oct-04 16:00N 38°42' W 009°08'4 7.1
2017-Oct-04 15:30N 38°39' W 009°06'2 4.3
2017-Oct-04 15:00N 38°41' W 009°08'3 5.6
2017-Oct-04 14:30N 38°39' W 009°05'0 0.0
2017-Oct-04 14:00N 38°39' W 009°05'0 0.0
2017-Oct-04 13:31N 38°39' W 009°05'0 0.0
2017-Oct-04 13:01N 38°39' W 009°05'0 0.0
2017-Oct-04 12:31N 38°39' W 009°05'4 7.3
2017-Oct-04 12:00N 38°42' W 009°08'3 6.1
2017-Oct-04 11:30N 38°39' W 009°06'3 6.1
2017-Oct-04 11:01N 38°42' W 009°08'3 6.6
2017-Oct-04 10:31N 38°39' W 009°05'1 1.0
2017-Oct-04 10:00N 38°39' W 009°05'0 0.0
2017-Oct-04 09:30N 38°39' W 009°05'4 8.3
2017-Oct-04 09:00N 38°42' W 009°08'4 8.4
2017-Oct-04 08:31N 38°39' W 009°05'4 8.4
2017-Oct-04 08:00N 38°42' W 009°08'4 7.2
2017-Oct-04 07:31N 38°39' W 009°06'2 3.6
2017-Oct-04 07:01N 38°40' W 009°08'0 1.0
2017-Oct-04 06:31N 38°40' W 009°07'1 2.0
2017-Oct-04 06:00N 38°40' W 009°06'1 2.0
2017-Oct-04 05:31N 38°39' W 009°05'0 0.0
2017-Oct-03 19:56N 38°39' W 009°05'4 9.7
2017-Oct-03 19:31N 38°42' W 009°08'4 8.3
2017-Oct-03 19:01N 38°39' W 009°05'4 8.3
2017-Oct-03 18:30N 38°42' W 009°08'4 8.3
2017-Oct-03 18:01N 38°39' W 009°05'4 8.1
2017-Oct-03 17:30N 38°42' W 009°08'2 4.7
2017-Oct-03 17:00N 38°40' W 009°07'1 1.7
2017-Oct-03 16:31N 38°40' W 009°06'3 6.1
2017-Oct-03 16:00N 38°42' W 009°08'4 8.3
2017-Oct-03 15:31N 38°39' W 009°05'3 6.8
2017-Oct-03 15:01N 38°42' W 009°08'3 3.3
2017-Oct-03 14:00N 38°39' W 009°05'0 0.0
2017-Oct-03 13:30N 38°39' W 009°05'0 0.0
2017-Oct-03 09:56N 38°39' W 009°05'0 0.1
2017-Oct-03 09:30N 38°39' W 009°05'4 7.1
2017-Oct-03 09:00N 38°42' W 009°08'3 5.9
2017-Oct-03 08:31N 38°39' W 009°06'3 5.4
2017-Oct-03 08:01N 38°41' W 009°08'3 5.5
2017-Oct-03 07:31N 38°39' W 009°06'4 7.2
2017-Oct-03 07:00N 38°42' W 009°08'4 8.5
2017-Oct-03 06:31N 38°39' W 009°05'3 5.7
2017-Oct-03 06:00N 38°40' W 009°08'3 5.5
2017-Oct-03 05:30N 38°39' W 009°05'0 0.0
2017-Oct-02 20:15N 38°39' W 009°05'2 8.4
2017-Oct-02 20:01N 38°40' W 009°07'0 0.9
2017-Oct-02 19:31N 38°40' W 009°07'2 5.0
2017-Oct-02 19:00N 38°39' W 009°05'2 3.9
2017-Oct-02 18:31N 38°40' W 009°07'1 1.5
2017-Oct-02 18:00N 38°40' W 009°06'3 6.4
2017-Oct-02 17:30N 38°42' W 009°08'4 8.3
2017-Oct-02 17:01N 38°39' W 009°05'4 8.0
2017-Oct-02 16:31N 38°42' W 009°08'2 4.4
2017-Oct-02 16:01N 38°40' W 009°07'1 1.2
2017-Oct-02 15:31N 38°41' W 009°08'3 5.4
2017-Oct-02 15:00N 38°39' W 009°05'0 0.0
2017-Oct-02 14:30N 38°39' W 009°05'3 6.4
2017-Oct-02 14:00N 38°41' W 009°08'3 5.2
2017-Oct-02 13:30N 38°39' W 009°06'3 6.0
2017-Oct-02 13:00N 38°42' W 009°08'3 6.1
2017-Oct-02 12:30N 38°39' W 009°05'0 1.0
2017-Oct-02 12:00N 38°39' W 009°05'0 0.0
2017-Oct-02 11:30N 38°39' W 009°05'0 0.0
2017-Oct-02 11:00N 38°39' W 009°05'0 0.0
2017-Oct-02 10:30N 38°39' W 009°05'0 0.0
2017-Oct-02 10:00N 38°39' W 009°05'0 0.2
2017-Oct-02 09:30N 38°39' W 009°05'3 6.6
2017-Oct-02 09:01N 38°41' W 009°08'2 4.9
2017-Oct-02 08:31N 38°39' W 009°06'2 4.5
2017-Oct-02 08:00N 38°41' W 009°08'3 5.7
2017-Oct-02 07:30N 38°39' W 009°05'4 7.8
2017-Oct-02 07:00N 38°42' W 009°08'4 8.4
2017-Oct-02 06:30N 38°39' W 009°05'3 6.4
2017-Oct-02 06:00N 38°41' W 009°08'3 6.3
2017-Oct-02 05:30N 38°39' W 009°05'  
2017-Sep-29 20:34N 38°39' W 009°05'0 0.0
2017-Sep-29 20:30N 38°39' W 009°05'4 8.3
2017-Sep-29 20:00N 38°42' W 009°08'4 8.3
2017-Sep-29 19:31N 38°39' W 009°05'3 6.2
2017-Sep-29 19:01N 38°41' W 009°08'1 1.5
2017-Sep-29 18:30N 38°40' W 009°07'0 0.3
2017-Sep-29 18:01N 38°40' W 009°08'2 4.1
2017-Sep-29 17:31N 38°39' W 009°05'4 7.6
2017-Sep-29 17:00N 38°42' W 009°08'4 8.2
2017-Sep-29 16:31N 38°39' W 009°05'4 8.1
2017-Sep-29 16:00N 38°42' W 009°08'3 6.7
2017-Sep-29 15:30N 38°39' W 009°06'2 4.0
2017-Sep-29 15:00N 38°41' W 009°08'3 5.8
2017-Sep-29 14:31N 38°39' W 009°05'0 0.2
2017-Sep-29 14:00N 38°39' W 009°05'0 0.0
2017-Sep-29 13:30N 38°39' W 009°05'0 0.0
2017-Sep-29 13:00N 38°39' W 009°05'0 0.0
2017-Sep-29 12:30N 38°39' W 009°05'0 0.0
2017-Sep-29 12:00N 38°39' W 009°05'0 0.0
2017-Sep-29 11:30N 38°39' W 009°05'0 0.0
2017-Sep-29 11:00N 38°39' W 009°05'0 0.1
2017-Sep-29 10:30N 38°39' W 009°05'0 0.0
2017-Sep-29 10:00N 38°39' W 009°05'0 0.0
2017-Sep-29 09:30N 38°39' W 009°05'3 6.4
2017-Sep-29 09:00N 38°41' W 009°08'2 4.9
2017-Sep-29 08:31N 38°39' W 009°06'2 4.8
2017-Sep-29 08:01N 38°41' W 009°08'3 5.9
2017-Sep-29 07:30N 38°39' W 009°05'4 7.8
2017-Sep-29 07:00N 38°42' W 009°08'4 8.3
2017-Sep-29 06:30N 38°39' W 009°05'4 7.1
2017-Sep-29 06:00N 38°42' W 009°08'3 7.0
2017-Sep-29 05:31N 38°39' W 009°05'0 0.0
2017-Sep-28 19:53N 38°39' W 009°05'411.1
2017-Sep-28 19:30N 38°42' W 009°08'4 8.4
2017-Sep-28 19:00N 38°39' W 009°05'4 8.3
2017-Sep-28 18:30N 38°42' W 009°08'4 8.3
2017-Sep-28 18:01N 38°39' W 009°05'4 7.7
2017-Sep-28 17:31N 38°42' W 009°08'2 4.2
2017-Sep-28 17:01N 38°40' W 009°07'1 2.4
2017-Sep-28 16:30N 38°40' W 009°06'3 6.4
2017-Sep-28 16:00N 38°42' W 009°08'4 8.3
2017-Sep-28 15:30N 38°39' W 009°05'4 7.3
2017-Sep-28 15:00N 38°42' W 009°08'3 6.2
2017-Sep-28 14:30N 38°39' W 009°06'1 1.2
2017-Sep-28 14:00N 38°39' W 009°05'0 0.0
2017-Sep-28 13:30N 38°39' W 009°05'0 0.0
2017-Sep-28 13:00N 38°39' W 009°05'0 0.0
2017-Sep-28 12:30N 38°39' W 009°05'0 0.0
2017-Sep-28 12:00N 38°39' W 009°05'0 0.0
2017-Sep-28 11:30N 38°39' W 009°05'0 0.0
2017-Sep-28 11:00N 38°39' W 009°05'0 0.1
2017-Sep-28 10:30N 38°39' W 009°05'3 6.5
2017-Sep-28 10:00N 38°42' W 009°08'3 5.1
2017-Sep-28 09:31N 38°39' W 009°06'1 1.6
2017-Sep-28 09:00N 38°39' W 009°05'4 8.3
2017-Sep-28 08:30N 38°42' W 009°08'4 8.3
2017-Sep-28 08:01N 38°39' W 009°05'4 7.7
2017-Sep-28 07:30N 38°42' W 009°08'2 3.7
2017-Sep-28 07:01N 38°40' W 009°07'2 4.5
2017-Sep-28 06:30N 38°39' W 009°05'4 8.1
2017-Sep-28 06:00N 38°42' W 009°08'4 8.3
2017-Sep-28 05:30N 38°39' W 009°05'4 7.6
2017-Sep-28 05:01N 38°42' W 009°08'4 7.6
2017-Sep-28 04:30N 38°39' W 009°05'0 0.0
2017-Sep-28 04:01N 38°39' W 009°05'0 0.0
2017-Sep-28 03:31N 38°39' W 009°05'0 0.0
2017-Sep-28 03:00N 38°39' W 009°05'0 0.0
2017-Sep-28 02:31N 38°39' W 009°05'0 0.0
2017-Sep-28 02:01N 38°39' W 009°05'0 0.0
2017-Sep-28 01:31N 38°39' W 009°05'0 0.0
2017-Sep-28 01:01N 38°39' W 009°05'0 0.0
2017-Sep-28 00:30N 38°39' W 009°05'0 0.0
2017-Sep-28 00:01N 38°39' W 009°05'0 0.0
2017-Sep-27 23:31N 38°39' W 009°05'0 0.0
2017-Sep-27 23:01N 38°39' W 009°05'4 8.3
2017-Sep-27 22:30N 38°42' W 009°08'4 8.4
2017-Sep-27 22:01N 38°39' W 009°05'3 6.9
2017-Sep-27 21:31N 38°42' W 009°08'3 6.9
2017-Sep-27 21:00N 38°39' W 009°05'4 7.1
2017-Sep-27 20:30N 38°42' W 009°08'4 7.0
2017-Sep-27 20:00N 38°39' W 009°05'0 0.0
2017-Sep-27 19:30N 38°39' W 009°05'4 8.3
2017-Sep-27 19:01N 38°42' W 009°08'4 8.4
2017-Sep-27 18:31N 38°39' W 009°05'4 8.4
2017-Sep-27 18:00N 38°42' W 009°08'4 8.3
2017-Sep-27 17:30N 38°39' W 009°05'4 8.2
2017-Sep-27 17:00N 38°42' W 009°08'2 4.6
2017-Sep-27 16:30N 38°40' W 009°07'0 0.3
2017-Sep-27 16:01N 38°40' W 009°07'2 4.5
2017-Sep-27 15:30N 38°39' W 009°05'0 0.0
2017-Sep-27 15:00N 38°39' W 009°05'0 0.0
2017-Sep-27 14:30N 38°39' W 009°05'0 0.0
2017-Sep-27 14:00N 38°39' W 009°05'0 0.0
2017-Sep-27 13:30N 38°39' W 009°05'0 0.0
2017-Sep-27 13:00N 38°39' W 009°05'0 0.0
2017-Sep-27 12:30N 38°39' W 009°05'0 0.0
2017-Sep-27 12:00N 38°39' W 009°05'0 0.0
2017-Sep-27 11:30N 38°39' W 009°05'0 0.0
2017-Sep-27 11:00N 38°39' W 009°05'0 0.0
2017-Sep-27 10:31N 38°39' W 009°05'0 0.0
2017-Sep-27 10:00N 38°39' W 009°05'0 0.0
2017-Sep-27 09:30N 38°39' W 009°05'0 0.0
2017-Sep-27 09:00N 38°39' W 009°05'0 0.1
2017-Sep-27 08:30N 38°39' W 009°05'3 6.4
2017-Sep-27 08:00N 38°41' W 009°08'3 6.6
2017-Sep-27 07:31N 38°39' W 009°05'4 8.4
2017-Sep-27 07:01N 38°42' W 009°08'4 8.3
2017-Sep-27 06:30N 38°39' W 009°05'3 6.5
2017-Sep-27 06:01N 38°42' W 009°08'3 6.5
2017-Sep-27 05:30N 38°39' W 009°05'  

Dump ship's entire track history